sensor_id;sensor_type;location;lat;lon;timestamp;temperature;humidity
82923;DHT22;72787;51.272;6.040;2023-09-19T00:00:31;15.84;75.19
82923;DHT22;72787;51.272;6.040;2023-09-19T00:02:58;15.82;75.36
82923;DHT22;72787;51.272;6.040;2023-09-19T00:05:28;15.80;75.48
82923;DHT22;72787;51.272;6.040;2023-09-19T00:07:56;15.78;75.60
82923;DHT22;72787;51.272;6.040;2023-09-19T00:10:27;15.80;75.48
82923;DHT22;72787;51.272;6.040;2023-09-19T00:12:58;15.77;75.50
82923;DHT22;72787;51.272;6.040;2023-09-19T00:15:36;15.73;75.67
82923;DHT22;72787;51.272;6.040;2023-09-19T00:18:03;15.72;75.77
82923;DHT22;72787;51.272;6.040;2023-09-19T00:20:32;15.72;75.75
82923;DHT22;72787;51.272;6.040;2023-09-19T00:23:00;15.70;75.86
82923;DHT22;72787;51.272;6.040;2023-09-19T00:25:33;15.68;75.94
82923;DHT22;72787;51.272;6.040;2023-09-19T00:28:01;15.67;76.26
82923;DHT22;72787;51.272;6.040;2023-09-19T00:30:27;15.65;76.17
82923;DHT22;72787;51.272;6.040;2023-09-19T00:32:53;15.62;76.16
82923;DHT22;72787;51.272;6.040;2023-09-19T00:35:19;15.59;76.21
82923;DHT22;72787;51.272;6.040;2023-09-19T00:37:44;15.58;76.08
82923;DHT22;72787;51.272;6.040;2023-09-19T00:40:11;15.58;76.26
82923;DHT22;72787;51.272;6.040;2023-09-19T00:42:39;15.56;76.21
82923;DHT22;72787;51.272;6.040;2023-09-19T00:45:09;15.54;76.38
82923;DHT22;72787;51.272;6.040;2023-09-19T00:47:48;15.53;76.31
82923;DHT22;72787;51.272;6.040;2023-09-19T00:50:23;15.49;76.28
82923;DHT22;72787;51.272;6.040;2023-09-19T00:52:54;15.51;76.08
82923;DHT22;72787;51.272;6.040;2023-09-19T00:55:24;15.44;76.28
82923;DHT22;72787;51.272;6.040;2023-09-19T00:57:50;15.41;76.22
82923;DHT22;72787;51.272;6.040;2023-09-19T01:00:16;15.40;76.21
82923;DHT22;72787;51.272;6.040;2023-09-19T01:02:46;15.39;76.44
82923;DHT22;72787;51.272;6.040;2023-09-19T01:05:13;15.36;76.51
82923;DHT22;72787;51.272;6.040;2023-09-19T01:07:39;15.31;76.25
82923;DHT22;72787;51.272;6.040;2023-09-19T01:10:13;15.33;76.24
82923;DHT22;72787;51.272;6.040;2023-09-19T01:18:55;15.27;76.93
82923;DHT22;72787;51.272;6.040;2023-09-19T01:21:26;15.27;77.22
82923;DHT22;72787;51.272;6.040;2023-09-19T01:29:47;15.25;76.44
82923;DHT22;72787;51.272;6.040;2023-09-19T01:32:17;15.25;76.59
82923;DHT22;72787;51.272;6.040;2023-09-19T01:34:55;15.23;76.19
82923;DHT22;72787;51.272;6.040;2023-09-19T01:37:30;15.23;76.06
82923;DHT22;72787;51.272;6.040;2023-09-19T01:40:02;15.24;75.96
82923;DHT22;72787;51.272;6.040;2023-09-19T01:48:19;15.22;75.67
82923;DHT22;72787;51.272;6.040;2023-09-19T01:50:59;15.22;75.34
82923;DHT22;72787;51.272;6.040;2023-09-19T01:53:35;15.22;75.55
82923;DHT22;72787;51.272;6.040;2023-09-19T01:56:05;15.19;75.17
82923;DHT22;72787;51.272;6.040;2023-09-19T01:58:39;15.18;75.22
82923;DHT22;72787;51.272;6.040;2023-09-19T02:01:12;15.17;75.24
82923;DHT22;72787;51.272;6.040;2023-09-19T02:03:41;15.16;74.60
82923;DHT22;72787;51.272;6.040;2023-09-19T02:06:07;15.15;74.96
82923;DHT22;72787;51.272;6.040;2023-09-19T02:08:37;15.14;74.60
82923;DHT22;72787;51.272;6.040;2023-09-19T02:11:03;15.14;74.53
82923;DHT22;72787;51.272;6.040;2023-09-19T02:13:29;15.10;74.44
82923;DHT22;72787;51.272;6.040;2023-09-19T02:15:57;15.09;74.44
82923;DHT22;72787;51.272;6.040;2023-09-19T02:18:23;15.09;74.27
82923;DHT22;72787;51.272;6.040;2023-09-19T02:20:49;15.09;74.25
82923;DHT22;72787;51.272;6.040;2023-09-19T02:23:16;15.08;73.81
82923;DHT22;72787;51.272;6.040;2023-09-19T02:25:42;15.07;73.92
82923;DHT22;72787;51.272;6.040;2023-09-19T02:28:08;15.04;73.84
82923;DHT22;72787;51.272;6.040;2023-09-19T02:30:34;15.02;73.80
82923;DHT22;72787;51.272;6.040;2023-09-19T02:33:01;15.01;73.93
82923;DHT22;72787;51.272;6.040;2023-09-19T02:35:28;15.01;73.55
82923;DHT22;72787;51.272;6.040;2023-09-19T02:37:54;14.99;73.70
82923;DHT22;72787;51.272;6.040;2023-09-19T02:40:19;14.99;73.78
82923;DHT22;72787;51.272;6.040;2023-09-19T02:42:46;14.97;73.80
82923;DHT22;72787;51.272;6.040;2023-09-19T02:45:15;14.97;73.80
82923;DHT22;72787;51.272;6.040;2023-09-19T02:47:41;14.96;73.83
82923;DHT22;72787;51.272;6.040;2023-09-19T02:50:06;14.95;73.82
82923;DHT22;72787;51.272;6.040;2023-09-19T02:52:33;14.98;73.74
82923;DHT22;72787;51.272;6.040;2023-09-19T02:54:59;14.97;73.83
82923;DHT22;72787;51.272;6.040;2023-09-19T02:57:26;14.94;73.88
82923;DHT22;72787;51.272;6.040;2023-09-19T02:59:53;14.91;74.12
82923;DHT22;72787;51.272;6.040;2023-09-19T03:02:18;14.88;73.99
82923;DHT22;72787;51.272;6.040;2023-09-19T03:04:44;14.87;74.05
82923;DHT22;72787;51.272;6.040;2023-09-19T03:07:11;14.84;74.13
82923;DHT22;72787;51.272;6.040;2023-09-19T03:09:37;14.83;74.29
82923;DHT22;72787;51.272;6.040;2023-09-19T03:12:03;14.82;74.42
82923;DHT22;72787;51.272;6.040;2023-09-19T03:14:30;14.81;74.57
82923;DHT22;72787;51.272;6.040;2023-09-19T03:17:01;14.82;74.53
82923;DHT22;72787;51.272;6.040;2023-09-19T03:19:30;14.81;74.83
82923;DHT22;72787;51.272;6.040;2023-09-19T03:21:59;14.82;74.71
82923;DHT22;72787;51.272;6.040;2023-09-19T03:24:25;14.83;74.80
82923;DHT22;72787;51.272;6.040;2023-09-19T03:26:52;14.82;74.86
82923;DHT22;72787;51.272;6.040;2023-09-19T03:29:18;14.82;75.06
82923;DHT22;72787;51.272;6.040;2023-09-19T03:31:45;14.82;75.38
82923;DHT22;72787;51.272;6.040;2023-09-19T03:34:11;14.82;75.60
82923;DHT22;72787;51.272;6.040;2023-09-19T03:36:37;14.82;75.85
82923;DHT22;72787;51.272;6.040;2023-09-19T03:39:03;14.81;76.00
82923;DHT22;72787;51.272;6.040;2023-09-19T03:41:32;14.80;76.02
82923;DHT22;72787;51.272;6.040;2023-09-19T03:43:59;14.82;76.36
82923;DHT22;72787;51.272;6.040;2023-09-19T03:46:25;14.82;76.50
82923;DHT22;72787;51.272;6.040;2023-09-19T03:48:51;14.83;76.68
82923;DHT22;72787;51.272;6.040;2023-09-19T03:51:16;14.83;76.82
82923;DHT22;72787;51.272;6.040;2023-09-19T03:53:42;14.86;76.77
82923;DHT22;72787;51.272;6.040;2023-09-19T03:56:09;14.88;76.92
82923;DHT22;72787;51.272;6.040;2023-09-19T03:58:35;14.89;76.74
82923;DHT22;72787;51.272;6.040;2023-09-19T04:01:05;14.93;76.41
82923;DHT22;72787;51.272;6.040;2023-09-19T04:03:35;14.93;76.11
82923;DHT22;72787;51.272;6.040;2023-09-19T04:06:12;14.97;75.99
82923;DHT22;72787;51.272;6.040;2023-09-19T04:08:38;14.99;75.82
82923;DHT22;72787;51.272;6.040;2023-09-19T04:11:04;15.00;75.64
82923;DHT22;72787;51.272;6.040;2023-09-19T04:13:30;15.02;75.44
82923;DHT22;72787;51.272;6.040;2023-09-19T04:15:55;15.02;75.47
82923;DHT22;72787;51.272;6.040;2023-09-19T04:18:22;15.04;75.12
82923;DHT22;72787;51.272;6.040;2023-09-19T04:20:50;15.04;74.95
82923;DHT22;72787;51.272;6.040;2023-09-19T04:23:16;15.04;74.86
82923;DHT22;72787;51.272;6.040;2023-09-19T04:25:43;15.07;74.97
82923;DHT22;72787;51.272;6.040;2023-09-19T04:28:09;15.08;74.79
82923;DHT22;72787;51.272;6.040;2023-09-19T04:30:38;15.09;74.57
82923;DHT22;72787;51.272;6.040;2023-09-19T04:33:07;15.09;74.64
82923;DHT22;72787;51.272;6.040;2023-09-19T04:35:34;15.09;74.26
82923;DHT22;72787;51.272;6.040;2023-09-19T04:38:00;15.08;74.39
82923;DHT22;72787;51.272;6.040;2023-09-19T04:40:26;15.09;74.39
82923;DHT22;72787;51.272;6.040;2023-09-19T04:42:56;15.10;74.23
82923;DHT22;72787;51.272;6.040;2023-09-19T04:45:26;15.10;74.23
82923;DHT22;72787;51.272;6.040;2023-09-19T04:47:53;15.12;74.06
82923;DHT22;72787;51.272;6.040;2023-09-19T04:50:19;15.12;74.02
82923;DHT22;72787;51.272;6.040;2023-09-19T04:52:49;15.15;73.69
82923;DHT22;72787;51.272;6.040;2023-09-19T04:55:17;15.13;73.87
82923;DHT22;72787;51.272;6.040;2023-09-19T04:57:49;15.14;73.83
82923;DHT22;72787;51.272;6.040;2023-09-19T05:00:17;15.16;73.89
82923;DHT22;72787;51.272;6.040;2023-09-19T05:02:46;15.21;74.09
82923;DHT22;72787;51.272;6.040;2023-09-19T05:05:14;15.28;73.83
82923;DHT22;72787;51.272;6.040;2023-09-19T05:07:42;15.33;73.56
82923;DHT22;72787;51.272;6.040;2023-09-19T05:10:09;15.40;73.44
82923;DHT22;72787;51.272;6.040;2023-09-19T05:12:39;15.45;73.43
82923;DHT22;72787;51.272;6.040;2023-09-19T05:15:06;15.48;73.22
82923;DHT22;72787;51.272;6.040;2023-09-19T05:17:36;15.49;73.21
82923;DHT22;72787;51.272;6.040;2023-09-19T05:20:03;15.53;72.63
82923;DHT22;72787;51.272;6.040;2023-09-19T05:22:44;15.56;72.84
82923;DHT22;72787;51.272;6.040;2023-09-19T05:25:12;15.61;72.38
82923;DHT22;72787;51.272;6.040;2023-09-19T05:27:43;15.63;72.47
82923;DHT22;72787;51.272;6.040;2023-09-19T05:30:09;15.69;72.06
82923;DHT22;72787;51.272;6.040;2023-09-19T05:32:35;15.70;71.74
82923;DHT22;72787;51.272;6.040;2023-09-19T05:35:01;15.71;71.68
82923;DHT22;72787;51.272;6.040;2023-09-19T05:37:26;15.73;71.77
82923;DHT22;72787;51.272;6.040;2023-09-19T05:39:52;15.75;71.73
82923;DHT22;72787;51.272;6.040;2023-09-19T05:42:19;15.77;71.61
82923;DHT22;72787;51.272;6.040;2023-09-19T05:44:45;15.82;71.68
82923;DHT22;72787;51.272;6.040;2023-09-19T05:47:10;15.84;71.46
82923;DHT22;72787;51.272;6.040;2023-09-19T05:49:36;15.87;71.61
82923;DHT22;72787;51.272;6.040;2023-09-19T05:52:05;15.86;71.23
82923;DHT22;72787;51.272;6.040;2023-09-19T05:54:32;15.82;71.48
82923;DHT22;72787;51.272;6.040;2023-09-19T05:57:00;15.82;71.72
82923;DHT22;72787;51.272;6.040;2023-09-19T05:59:27;15.82;71.95
82923;DHT22;72787;51.272;6.040;2023-09-19T06:01:53;15.80;72.03
82923;DHT22;72787;51.272;6.040;2023-09-19T06:04:18;15.81;72.14
82923;DHT22;72787;51.272;6.040;2023-09-19T06:06:45;15.81;72.19
82923;DHT22;72787;51.272;6.040;2023-09-19T06:09:10;15.82;72.32
82923;DHT22;72787;51.272;6.040;2023-09-19T06:11:36;15.83;72.25
82923;DHT22;72787;51.272;6.040;2023-09-19T06:14:04;15.84;72.51
82923;DHT22;72787;51.272;6.040;2023-09-19T06:16:30;15.85;72.90
82923;DHT22;72787;51.272;6.040;2023-09-19T06:18:58;15.89;72.87
82923;DHT22;72787;51.272;6.040;2023-09-19T06:21:26;15.95;72.91
82923;DHT22;72787;51.272;6.040;2023-09-19T06:23:53;15.98;72.72
82923;DHT22;72787;51.272;6.040;2023-09-19T06:26:19;16.06;72.61
82923;DHT22;72787;51.272;6.040;2023-09-19T06:28:45;16.10;72.65
82923;DHT22;72787;51.272;6.040;2023-09-19T06:31:12;16.11;72.90
82923;DHT22;72787;51.272;6.040;2023-09-19T06:33:38;16.14;72.36
82923;DHT22;72787;51.272;6.040;2023-09-19T06:36:05;16.16;71.97
82923;DHT22;72787;51.272;6.040;2023-09-19T06:38:31;16.20;72.11
82923;DHT22;72787;51.272;6.040;2023-09-19T06:41:00;16.24;72.23
82923;DHT22;72787;51.272;6.040;2023-09-19T06:43:35;16.26;71.84
82923;DHT22;72787;51.272;6.040;2023-09-19T06:46:01;16.27;71.66
82923;DHT22;72787;51.272;6.040;2023-09-19T06:48:27;16.30;71.81
82923;DHT22;72787;51.272;6.040;2023-09-19T06:50:56;16.36;71.61
82923;DHT22;72787;51.272;6.040;2023-09-19T06:53:24;16.44;71.58
82923;DHT22;72787;51.272;6.040;2023-09-19T06:55:51;16.45;71.38
82923;DHT22;72787;51.272;6.040;2023-09-19T06:58:17;16.49;71.18
82923;DHT22;72787;51.272;6.040;2023-09-19T07:00:42;16.54;71.56
82923;DHT22;72787;51.272;6.040;2023-09-19T07:03:08;16.55;70.93
82923;DHT22;72787;51.272;6.040;2023-09-19T07:05:38;16.61;71.06
82923;DHT22;72787;51.272;6.040;2023-09-19T07:08:06;16.63;71.09
82923;DHT22;72787;51.272;6.040;2023-09-19T07:10:32;16.71;70.93
82923;DHT22;72787;51.272;6.040;2023-09-19T07:13:00;16.74;70.89
82923;DHT22;72787;51.272;6.040;2023-09-19T07:15:27;16.76;70.69
82923;DHT22;72787;51.272;6.040;2023-09-19T07:17:54;16.80;70.37
82923;DHT22;72787;51.272;6.040;2023-09-19T07:20:23;16.82;70.35
82923;DHT22;72787;51.272;6.040;2023-09-19T07:22:51;16.84;70.30
82923;DHT22;72787;51.272;6.040;2023-09-19T07:25:17;16.85;70.10
82923;DHT22;72787;51.272;6.040;2023-09-19T07:27:43;16.87;70.26
82923;DHT22;72787;51.272;6.040;2023-09-19T07:30:10;16.91;69.84
82923;DHT22;72787;51.272;6.040;2023-09-19T07:32:37;16.91;69.79
82923;DHT22;72787;51.272;6.040;2023-09-19T07:35:04;16.91;69.94
82923;DHT22;72787;51.272;6.040;2023-09-19T07:37:34;16.95;69.71
82923;DHT22;72787;51.272;6.040;2023-09-19T07:40:00;17.01;69.96
82923;DHT22;72787;51.272;6.040;2023-09-19T07:42:33;17.08;69.97
82923;DHT22;72787;51.272;6.040;2023-09-19T07:45:02;17.14;69.62
82923;DHT22;72787;51.272;6.040;2023-09-19T07:47:29;17.21;69.46
82923;DHT22;72787;51.272;6.040;2023-09-19T07:49:56;17.28;69.07
82923;DHT22;72787;51.272;6.040;2023-09-19T07:52:21;17.29;69.22
82923;DHT22;72787;51.272;6.040;2023-09-19T07:54:48;17.34;68.50
82923;DHT22;72787;51.272;6.040;2023-09-19T07:57:15;17.41;68.20
82923;DHT22;72787;51.272;6.040;2023-09-19T07:59:41;17.46;68.19
82923;DHT22;72787;51.272;6.040;2023-09-19T08:02:09;17.49;68.01
82923;DHT22;72787;51.272;6.040;2023-09-19T08:04:42;17.53;67.77
82923;DHT22;72787;51.272;6.040;2023-09-19T08:07:09;17.60;67.88
82923;DHT22;72787;51.272;6.040;2023-09-19T08:09:34;17.65;67.80
82923;DHT22;72787;51.272;6.040;2023-09-19T08:12:00;17.72;68.09
82923;DHT22;72787;51.272;6.040;2023-09-19T08:14:29;17.78;67.95
82923;DHT22;72787;51.272;6.040;2023-09-19T08:16:58;17.84;67.92
82923;DHT22;72787;51.272;6.040;2023-09-19T08:19:25;17.90;67.80
82923;DHT22;72787;51.272;6.040;2023-09-19T08:21:56;17.96;67.36
82923;DHT22;72787;51.272;6.040;2023-09-19T08:24:28;18.06;67.15
82923;DHT22;72787;51.272;6.040;2023-09-19T08:26:55;18.05;67.00
82923;DHT22;72787;51.272;6.040;2023-09-19T08:29:25;18.08;66.85
82923;DHT22;72787;51.272;6.040;2023-09-19T08:31:57;18.13;66.52
82923;DHT22;72787;51.272;6.040;2023-09-19T08:34:26;18.18;66.52
82923;DHT22;72787;51.272;6.040;2023-09-19T08:36:54;18.21;65.90
82923;DHT22;72787;51.272;6.040;2023-09-19T08:39:23;18.23;66.32
82923;DHT22;72787;51.272;6.040;2023-09-19T08:41:49;18.26;66.07
82923;DHT22;72787;51.272;6.040;2023-09-19T08:44:15;18.30;65.66
82923;DHT22;72787;51.272;6.040;2023-09-19T08:46:43;18.34;65.54
82923;DHT22;72787;51.272;6.040;2023-09-19T08:52:04;18.47;65.65
82923;DHT22;72787;51.272;6.040;2023-09-19T08:54:37;18.52;65.22
82923;DHT22;72787;51.272;6.040;2023-09-19T08:57:07;18.52;65.27
82923;DHT22;72787;51.272;6.040;2023-09-19T08:59:48;18.54;65.30
82923;DHT22;72787;51.272;6.040;2023-09-19T09:02:18;18.54;65.19
82923;DHT22;72787;51.272;6.040;2023-09-19T09:04:46;18.58;65.13
82923;DHT22;72787;51.272;6.040;2023-09-19T09:07:14;18.68;64.93
82923;DHT22;72787;51.272;6.040;2023-09-19T09:09:40;18.78;64.43
82923;DHT22;72787;51.272;6.040;2023-09-19T09:12:14;18.85;64.12
82923;DHT22;72787;51.272;6.040;2023-09-19T09:14:45;18.89;63.48
82923;DHT22;72787;51.272;6.040;2023-09-19T09:17:14;18.98;63.47
82923;DHT22;72787;51.272;6.040;2023-09-19T09:19:40;19.02;63.34
82923;DHT22;72787;51.272;6.040;2023-09-19T09:22:09;19.05;63.28
82923;DHT22;72787;51.272;6.040;2023-09-19T09:24:36;19.07;62.82
82923;DHT22;72787;51.272;6.040;2023-09-19T09:27:05;19.06;62.31
82923;DHT22;72787;51.272;6.040;2023-09-19T09:29:46;0.00;63.16
82923;DHT22;72787;51.272;6.040;2023-09-19T09:32:25;19.13;63.31
82923;DHT22;72787;51.272;6.040;2023-09-19T09:34:57;19.13;63.06
82923;DHT22;72787;51.272;6.040;2023-09-19T09:37:24;19.14;62.34
82923;DHT22;72787;51.272;6.040;2023-09-19T09:39:59;19.13;62.85
82923;DHT22;72787;51.272;6.040;2023-09-19T09:42:44;19.15;62.93
82923;DHT22;72787;51.272;6.040;2023-09-19T09:45:21;19.11;62.27
82923;DHT22;72787;51.272;6.040;2023-09-19T09:48:07;19.00;61.81
82923;DHT22;72787;51.272;6.040;2023-09-19T09:50:47;18.83;61.82
82923;DHT22;72787;51.272;6.040;2023-09-19T09:56:08;18.72;62.52
82923;DHT22;72787;51.272;6.040;2023-09-19T09:58:50;18.79;62.08
82923;DHT22;72787;51.272;6.040;2023-09-19T10:01:21;18.85;62.11
82923;DHT22;72787;51.272;6.040;2023-09-19T10:03:57;18.95;62.12
82923;DHT22;72787;51.272;6.040;2023-09-19T10:06:23;19.05;62.39
82923;DHT22;72787;51.272;6.040;2023-09-19T10:09:08;19.20;61.93
82923;DHT22;72787;51.272;6.040;2023-09-19T10:11:41;19.30;61.86
82923;DHT22;72787;51.272;6.040;2023-09-19T10:14:11;19.42;60.78
82923;DHT22;72787;51.272;6.040;2023-09-19T10:16:41;19.50;61.18
82923;DHT22;72787;51.272;6.040;2023-09-19T10:19:15;19.47;61.05
82923;DHT22;72787;51.272;6.040;2023-09-19T10:21:42;19.40;60.79
82923;DHT22;72787;51.272;6.040;2023-09-19T10:24:09;19.39;61.92
82923;DHT22;72787;51.272;6.040;2023-09-19T10:26:36;19.40;61.54
82923;DHT22;72787;51.272;6.040;2023-09-19T10:29:03;19.48;61.68
82923;DHT22;72787;51.272;6.040;2023-09-19T10:31:34;19.59;61.50
82923;DHT22;72787;51.272;6.040;2023-09-19T10:34:03;19.60;60.67
82923;DHT22;72787;51.272;6.040;2023-09-19T10:36:33;19.65;61.23
82923;DHT22;72787;51.272;6.040;2023-09-19T10:39:02;19.76;61.53
82923;DHT22;72787;51.272;6.040;2023-09-19T10:41:32;19.90;61.27
82923;DHT22;72787;51.272;6.040;2023-09-19T10:44:04;20.03;60.90
82923;DHT22;72787;51.272;6.040;2023-09-19T10:46:33;20.09;59.64
82923;DHT22;72787;51.272;6.040;2023-09-19T10:49:01;20.09;59.39
82923;DHT22;72787;51.272;6.040;2023-09-19T10:51:33;20.05;59.28
82923;DHT22;72787;51.272;6.040;2023-09-19T10:54:12;20.11;58.80
82923;DHT22;72787;51.272;6.040;2023-09-19T10:56:44;20.13;58.35
82923;DHT22;72787;51.272;6.040;2023-09-19T10:59:15;20.13;57.74
82923;DHT22;72787;51.272;6.040;2023-09-19T11:01:50;20.15;58.61
82923;DHT22;72787;51.272;6.040;2023-09-19T11:04:35;20.16;57.71
82923;DHT22;72787;51.272;6.040;2023-09-19T11:07:11;20.21;58.41
82923;DHT22;72787;51.272;6.040;2023-09-19T11:15:07;20.49;57.88
82923;DHT22;72787;51.272;6.040;2023-09-19T11:17:35;20.51;57.03
82923;DHT22;72787;51.272;6.040;2023-09-19T11:23:16;20.60;56.85
82923;DHT22;72787;51.272;6.040;2023-09-19T11:25:43;20.68;55.94
82923;DHT22;72787;51.272;6.040;2023-09-19T11:30:51;20.71;55.35
82923;DHT22;72787;51.272;6.040;2023-09-19T11:33:30;20.74;55.71
82923;DHT22;72787;51.272;6.040;2023-09-19T11:43:53;20.87;54.59
82923;DHT22;72787;51.272;6.040;2023-09-19T11:46:25;20.93;54.10
82923;DHT22;72787;51.272;6.040;2023-09-19T11:48:51;20.99;54.36
82923;DHT22;72787;51.272;6.040;2023-09-19T11:53:46;21.19;54.96
82923;DHT22;72787;51.272;6.040;2023-09-19T11:56:16;21.24;55.16
82923;DHT22;72787;51.272;6.040;2023-09-19T11:58:44;21.30;54.42
82923;DHT22;72787;51.272;6.040;2023-09-19T12:01:14;21.33;53.96
82923;DHT22;72787;51.272;6.040;2023-09-19T12:03:46;21.35;54.21
82923;DHT22;72787;51.272;6.040;2023-09-19T12:06:17;21.36;54.08
82923;DHT22;72787;51.272;6.040;2023-09-19T12:08:44;21.34;53.84
82923;DHT22;72787;51.272;6.040;2023-09-19T12:11:13;21.36;53.74
82923;DHT22;72787;51.272;6.040;2023-09-19T12:13:45;21.37;53.75
82923;DHT22;72787;51.272;6.040;2023-09-19T12:16:16;21.36;53.08
82923;DHT22;72787;51.272;6.040;2023-09-19T12:18:44;21.30;53.08
82923;DHT22;72787;51.272;6.040;2023-09-19T12:21:29;21.30;53.14
82923;DHT22;72787;51.272;6.040;2023-09-19T12:24:07;21.34;52.72
82923;DHT22;72787;51.272;6.040;2023-09-19T12:26:43;21.40;53.02
82923;DHT22;72787;51.272;6.040;2023-09-19T12:29:16;21.49;53.23
82923;DHT22;72787;51.272;6.040;2023-09-19T12:34:29;21.51;52.57
82923;DHT22;72787;51.272;6.040;2023-09-19T12:37:15;21.57;52.28
82923;DHT22;72787;51.272;6.040;2023-09-19T12:39:49;21.51;52.23
82923;DHT22;72787;51.272;6.040;2023-09-19T12:42:19;21.50;52.41
82923;DHT22;72787;51.272;6.040;2023-09-19T12:44:48;21.60;53.00
82923;DHT22;72787;51.272;6.040;2023-09-19T12:47:18;21.70;52.59
82923;DHT22;72787;51.272;6.040;2023-09-19T12:52:48;21.89;52.70
82923;DHT22;72787;51.272;6.040;2023-09-19T12:55:21;21.89;52.01
82923;DHT22;72787;51.272;6.040;2023-09-19T12:58:12;21.90;51.79
82923;DHT22;72787;51.272;6.040;2023-09-19T13:00:39;21.92;52.35
82923;DHT22;72787;51.272;6.040;2023-09-19T13:08:31;21.68;52.45
82923;DHT22;72787;51.272;6.040;2023-09-19T13:14:12;21.61;53.47
82923;DHT22;72787;51.272;6.040;2023-09-19T13:19:42;21.75;53.48
82923;DHT22;72787;51.272;6.040;2023-09-19T13:22:43;21.83;53.49
82923;DHT22;72787;51.272;6.040;2023-09-19T13:25:16;21.80;53.10
82923;DHT22;72787;51.272;6.040;2023-09-19T13:27:47;21.80;53.36
82923;DHT22;72787;51.272;6.040;2023-09-19T13:30:22;21.77;52.75
82923;DHT22;72787;51.272;6.040;2023-09-19T13:32:48;21.69;53.06
82923;DHT22;72787;51.272;6.040;2023-09-19T13:35:15;21.59;53.10
82923;DHT22;72787;51.272;6.040;2023-09-19T13:37:42;21.50;53.33
82923;DHT22;72787;51.272;6.040;2023-09-19T13:40:10;21.49;52.82
82923;DHT22;72787;51.272;6.040;2023-09-19T13:42:37;21.48;53.52
82923;DHT22;72787;51.272;6.040;2023-09-19T13:45:04;21.48;53.44
82923;DHT22;72787;51.272;6.040;2023-09-19T13:47:31;21.45;53.75
82923;DHT22;72787;51.272;6.040;2023-09-19T13:49:58;21.47;53.25
82923;DHT22;72787;51.272;6.040;2023-09-19T13:52:24;21.50;52.99
82923;DHT22;72787;51.272;6.040;2023-09-19T13:54:54;21.61;53.55
82923;DHT22;72787;51.272;6.040;2023-09-19T13:57:25;21.64;53.39
82923;DHT22;72787;51.272;6.040;2023-09-19T13:59:55;21.63;52.73
82923;DHT22;72787;51.272;6.040;2023-09-19T14:02:22;21.61;52.71
82923;DHT22;72787;51.272;6.040;2023-09-19T14:04:52;21.62;53.30
82923;DHT22;72787;51.272;6.040;2023-09-19T14:07:17;21.70;54.12
82923;DHT22;72787;51.272;6.040;2023-09-19T14:09:45;21.82;53.56
82923;DHT22;72787;51.272;6.040;2023-09-19T14:12:11;21.85;53.23
82923;DHT22;72787;51.272;6.040;2023-09-19T14:14:37;21.82;52.91
82923;DHT22;72787;51.272;6.040;2023-09-19T14:17:04;21.77;52.77
82923;DHT22;72787;51.272;6.040;2023-09-19T14:19:30;21.73;53.29
82923;DHT22;72787;51.272;6.040;2023-09-19T14:21:56;21.62;53.17
82923;DHT22;72787;51.272;6.040;2023-09-19T14:24:22;21.46;53.00
82923;DHT22;72787;51.272;6.040;2023-09-19T14:26:49;21.37;53.63
82923;DHT22;72787;51.272;6.040;2023-09-19T14:29:16;21.22;53.72
82923;DHT22;72787;51.272;6.040;2023-09-19T14:31:42;21.10;54.10
82923;DHT22;72787;51.272;6.040;2023-09-19T14:34:08;21.01;54.18
82923;DHT22;72787;51.272;6.040;2023-09-19T14:36:38;20.94;54.51
82923;DHT22;72787;51.272;6.040;2023-09-19T14:39:06;20.96;54.16
82923;DHT22;72787;51.272;6.040;2023-09-19T14:41:33;20.95;54.39
82923;DHT22;72787;51.272;6.040;2023-09-19T14:43:59;20.90;54.46
82923;DHT22;72787;51.272;6.040;2023-09-19T14:46:25;20.84;54.85
82923;DHT22;72787;51.272;6.040;2023-09-19T14:48:51;20.77;54.88
82923;DHT22;72787;51.272;6.040;2023-09-19T14:51:17;20.77;55.45
82923;DHT22;72787;51.272;6.040;2023-09-19T14:53:45;20.77;55.20
82923;DHT22;72787;51.272;6.040;2023-09-19T14:56:11;20.70;55.08
82923;DHT22;72787;51.272;6.040;2023-09-19T14:58:38;20.71;55.41
82923;DHT22;72787;51.272;6.040;2023-09-19T15:01:09;20.66;55.31
82923;DHT22;72787;51.272;6.040;2023-09-19T15:03:39;20.63;55.30
82923;DHT22;72787;51.272;6.040;2023-09-19T15:06:10;20.62;55.53
82923;DHT22;72787;51.272;6.040;2023-09-19T15:08:46;20.69;55.97
82923;DHT22;72787;51.272;6.040;2023-09-19T15:11:19;20.73;56.05
82923;DHT22;72787;51.272;6.040;2023-09-19T15:13:47;20.77;55.75
82923;DHT22;72787;51.272;6.040;2023-09-19T15:16:13;20.76;55.91
82923;DHT22;72787;51.272;6.040;2023-09-19T15:18:41;20.72;55.81
82923;DHT22;72787;51.272;6.040;2023-09-19T15:21:09;20.64;55.85
82923;DHT22;72787;51.272;6.040;2023-09-19T15:23:37;20.55;55.71
82923;DHT22;72787;51.272;6.040;2023-09-19T15:26:04;20.51;56.19
82923;DHT22;72787;51.272;6.040;2023-09-19T15:28:30;20.51;56.58
82923;DHT22;72787;51.272;6.040;2023-09-19T15:31:08;20.61;56.48
82923;DHT22;72787;51.272;6.040;2023-09-19T15:33:34;20.76;56.25
82923;DHT22;72787;51.272;6.040;2023-09-19T15:36:10;20.90;55.91
82923;DHT22;72787;51.272;6.040;2023-09-19T15:41:23;21.02;55.00
82923;DHT22;72787;51.272;6.040;2023-09-19T15:43:50;21.03;54.71
82923;DHT22;72787;51.272;6.040;2023-09-19T15:46:15;20.95;54.80
82923;DHT22;72787;51.272;6.040;2023-09-19T15:48:42;20.87;54.78
82923;DHT22;72787;51.272;6.040;2023-09-19T15:51:08;20.85;55.40
82923;DHT22;72787;51.272;6.040;2023-09-19T15:56:12;20.79;55.67
82923;DHT22;72787;51.272;6.040;2023-09-19T15:58:40;20.73;55.61
82923;DHT22;72787;51.272;6.040;2023-09-19T16:01:08;20.62;56.03
82923;DHT22;72787;51.272;6.040;2023-09-19T16:03:56;20.60;55.98
82923;DHT22;72787;51.272;6.040;2023-09-19T16:06:28;20.50;56.16
82923;DHT22;72787;51.272;6.040;2023-09-19T16:08:56;20.41;56.70
82923;DHT22;72787;51.272;6.040;2023-09-19T16:11:25;20.34;56.92
82923;DHT22;72787;51.272;6.040;2023-09-19T16:13:52;20.28;57.08
82923;DHT22;72787;51.272;6.040;2023-09-19T16:16:20;20.25;56.83
82923;DHT22;72787;51.272;6.040;2023-09-19T16:18:50;20.26;56.73
82923;DHT22;72787;51.272;6.040;2023-09-19T16:21:27;20.26;56.93
82923;DHT22;72787;51.272;6.040;2023-09-19T16:23:54;20.26;56.98
82923;DHT22;72787;51.272;6.040;2023-09-19T16:26:21;20.29;57.32
82923;DHT22;72787;51.272;6.040;2023-09-19T16:28:49;20.28;57.26
82923;DHT22;72787;51.272;6.040;2023-09-19T16:31:15;20.25;57.47
82923;DHT22;72787;51.272;6.040;2023-09-19T16:33:46;20.18;57.52
82923;DHT22;72787;51.272;6.040;2023-09-19T16:38:41;20.06;57.34
82923;DHT22;72787;51.272;6.040;2023-09-19T16:41:07;20.02;57.68
82923;DHT22;72787;51.272;6.040;2023-09-19T16:43:34;19.99;57.72
82923;DHT22;72787;51.272;6.040;2023-09-19T16:46:02;19.98;57.66
82923;DHT22;72787;51.272;6.040;2023-09-19T16:48:30;19.96;57.39
82923;DHT22;72787;51.272;6.040;2023-09-19T16:51:00;19.95;57.60